Time;durP1;ratioP1;P1;durP2;ratioP2;P2;SDS_P1;SDS_P2;PMS_P1;PMS_P2;Temp;Humidity;BMP_temperature;BMP_pressure;BME280_temperature;BME280_humidity;BME280_pressure;Samples;Min_cycle;Max_cycle;Signal;HPM_P1;HPM_P2
2023/08/24 00:01:12;;;;;;;12.43;7.43;;;;;;;;;;5115580;28;20028;-70
2023/08/24 00:03:37;;;;;;;18.27;7.90;;;;;;;;;;5114933;28;20019;-69
2023/08/24 00:06:02;;;;;;;15.25;8.40;;;;;;;;;;5115224;28;20034;-69
2023/08/24 00:08:27;;;;;;;14.55;8.63;;;;;;;;;;5115468;28;20043;-69
2023/08/24 00:10:53;;;;;;;14.82;8.80;;;;;;;;;;5108595;28;20020;-69
2023/08/24 00:13:18;;;;;;;19.10;9.47;;;;;;;;;;5094732;28;20472;-69
2023/08/24 00:15:44;;;;;;;16.50;10.02;;;;;;;;;;5096858;28;20027;-69
2023/08/24 00:18:10;;;;;;;15.45;9.68;;;;;;;;;;5115197;28;20496;-69
2023/08/24 00:20:35;;;;;;;22.07;9.40;;;;;;;;;;5115037;28;20024;-69
2023/08/24 00:23:00;;;;;;;19.17;8.80;;;;;;;;;;5114900;28;20027;-69
2023/08/24 00:25:26;;;;;;;17.90;8.75;;;;;;;;;;5114866;28;20019;-69
2023/08/24 00:27:54;;;;;;;14.30;8.02;;;;;;;;;;5114923;28;20036;-70
2023/08/24 00:30:20;;;;;;;12.55;8.50;;;;;;;;;;5114608;28;20020;-69
2023/08/24 00:32:45;;;;;;;14.98;8.82;;;;;;;;;;5114965;28;20026;-70
2023/08/24 00:35:10;;;;;;;15.23;8.43;;;;;;;;;;5114724;28;20024;-69
2023/08/24 00:37:36;;;;;;;19.23;8.60;;;;;;;;;;5097841;28;20048;-69
2023/08/24 00:40:04;;;;;;;17.70;8.38;;;;;;;;;;5094164;28;20077;-70
2023/08/24 00:42:29;;;;;;;16.58;9.00;;;;;;;;;;5094171;28;20091;-69
2023/08/24 00:44:54;;;;;;;17.92;8.70;;;;;;;;;;5093857;28;20128;-69
2023/08/24 00:47:20;;;;;;;12.48;7.88;;;;;;;;;;5094356;28;20052;-69
2023/08/24 00:49:45;;;;;;;15.53;8.13;;;;;;;;;;5094062;28;20012;-69
2023/08/24 00:52:10;;;;;;;17.75;8.27;;;;;;;;;;5093236;28;20028;-69
2023/08/24 00:54:36;;;;;;;13.52;7.65;;;;;;;;;;5094080;28;20529;-69
2023/08/24 00:57:01;;;;;;;19.67;8.90;;;;;;;;;;5103671;28;20015;-69
2023/08/24 00:59:27;;;;;;;14.98;8.63;;;;;;;;;;5109844;28;20020;-69
2023/08/24 01:01:52;;;;;;;16.00;8.63;;;;;;;;;;5094758;28;20428;-69
2023/08/24 01:04:17;;;;;;;15.17;8.83;;;;;;;;;;5098282;28;20344;-69
2023/08/24 01:06:42;;;;;;;15.37;8.27;;;;;;;;;;5106414;28;20263;-69
2023/08/24 01:09:08;;;;;;;14.47;8.50;;;;;;;;;;5094062;28;20244;-69
2023/08/24 01:11:42;;;;;;;11.20;8.37;;;;;;;;;;5103180;28;20283;-69
2023/08/24 01:14:14;;;;;;;19.77;8.30;;;;;;;;;;5113977;28;20267;-69
2023/08/24 01:16:40;;;;;;;15.57;7.82;;;;;;;;;;5113921;28;20019;-69
2023/08/24 01:19:07;;;;;;;19.00;8.90;;;;;;;;;;5113880;28;20434;-69
2023/08/24 01:21:33;;;;;;;16.23;8.07;;;;;;;;;;5113890;28;20016;-69
2023/08/24 01:24:01;;;;;;;12.27;8.75;;;;;;;;;;5102320;28;20028;-69
2023/08/24 01:26:26;;;;;;;13.30;8.50;;;;;;;;;;5100384;28;20026;-69
2023/08/24 01:28:52;;;;;;;14.95;8.70;;;;;;;;;;5113776;28;20436;-69
2023/08/24 01:31:17;;;;;;;16.00;8.43;;;;;;;;;;5103931;28;20032;-69
2023/08/24 01:33:42;;;;;;;23.40;8.87;;;;;;;;;;5099110;28;20099;-69
2023/08/24 01:36:12;;;;;;;14.68;8.70;;;;;;;;;;5113101;28;20283;-69
2023/08/24 01:38:37;;;;;;;17.27;8.90;;;;;;;;;;5092088;28;20058;-66
2023/08/24 01:41:16;;;;;;;16.85;7.97;;;;;;;;;;5093208;28;20063;-66
2023/08/24 01:43:43;;;;;;;19.48;8.95;;;;;;;;;;5093113;28;20432;-66
2023/08/24 01:46:08;;;;;;;17.33;8.38;;;;;;;;;;5092952;28;20048;-66
2023/08/24 01:48:34;;;;;;;15.55;9.23;;;;;;;;;;5100749;28;20218;-66
2023/08/24 01:51:00;;;;;;;15.98;8.95;;;;;;;;;;5112782;28;20038;-66
2023/08/24 01:53:26;;;;;;;13.40;8.60;;;;;;;;;;5112905;28;20019;-66
2023/08/24 01:55:53;;;;;;;19.65;9.13;;;;;;;;;;5112791;28;20016;-65
2023/08/24 01:58:18;;;;;;;16.00;8.82;;;;;;;;;;5101793;28;20020;-66
2023/08/24 02:00:43;;;;;;;17.95;9.90;;;;;;;;;;5093239;28;20024;-66
2023/08/24 02:03:08;;;;;;;14.00;8.93;;;;;;;;;;5102060;28;20428;-66
2023/08/24 02:05:34;;;;;;;22.13;9.60;;;;;;;;;;5097101;28;20477;-66
2023/08/24 02:07:59;;;;;;;19.87;9.30;;;;;;;;;;5097092;28;20019;-65
2023/08/24 02:10:25;;;;;;;18.67;9.68;;;;;;;;;;5097993;28;20042;-66
2023/08/24 02:12:50;;;;;;;18.05;9.02;;;;;;;;;;5097239;28;20020;-66
2023/08/24 02:15:15;;;;;;;13.70;8.80;;;;;;;;;;5096888;28;20029;-66
2023/08/24 02:17:41;;;;;;;17.37;8.20;;;;;;;;;;5107644;28;20358;-66
2023/08/24 02:20:08;;;;;;;15.03;8.97;;;;;;;;;;5116599;28;20019;-66
2023/08/24 02:22:33;;;;;;;15.93;8.60;;;;;;;;;;5116292;28;20641;-66
2023/08/24 02:24:58;;;;;;;12.07;8.60;;;;;;;;;;5102906;28;20021;-66
2023/08/24 02:27:24;;;;;;;23.47;10.30;;;;;;;;;;5096651;28;20024;-66
2023/08/24 02:29:49;;;;;;;16.10;10.53;;;;;;;;;;5099820;28;20019;-66
2023/08/24 02:32:14;;;;;;;31.30;11.70;;;;;;;;;;5116392;28;20038;-66
2023/08/24 02:34:39;;;;;;;18.43;10.90;;;;;;;;;;5116066;28;20373;-66
2023/08/24 02:37:04;;;;;;;15.90;9.93;;;;;;;;;;5116540;28;20278;-66
2023/08/24 02:39:30;;;;;;;25.27;11.23;;;;;;;;;;5116510;28;20476;-66
2023/08/24 02:41:55;;;;;;;17.13;12.03;;;;;;;;;;5115950;28;20020;-66
2023/08/24 02:44:20;;;;;;;20.57;11.07;;;;;;;;;;5112749;28;20028;-65
2023/08/24 02:46:45;;;;;;;19.13;10.37;;;;;;;;;;5096164;28;20039;-66
2023/08/24 02:49:10;;;;;;;20.60;11.30;;;;;;;;;;5097554;28;20028;-69
2023/08/24 02:51:36;;;;;;;19.77;10.67;;;;;;;;;;5102442;28;20283;-69
2023/08/24 02:54:01;;;;;;;18.20;10.87;;;;;;;;;;5096249;28;20023;-69
2023/08/24 02:56:26;;;;;;;19.57;11.00;;;;;;;;;;5096180;28;20008;-69
2023/08/24 02:58:52;;;;;;;15.37;9.80;;;;;;;;;;5096247;28;20496;-69
2023/08/24 03:01:18;;;;;;;16.98;10.57;;;;;;;;;;5112523;28;20260;-69
2023/08/24 03:03:43;;;;;;;16.98;10.60;;;;;;;;;;5115784;28;20039;-69
2023/08/24 03:06:08;;;;;;;19.10;10.67;;;;;;;;;;5116073;28;20023;-69
2023/08/24 03:08:34;;;;;;;17.00;11.63;;;;;;;;;;5097518;28;20303;-69
2023/08/24 03:11:00;;;;;;;21.70;9.77;;;;;;;;;;5113934;28;20020;-69
2023/08/24 03:13:26;;;;;;;14.18;10.20;;;;;;;;;;5115345;28;20103;-69
2023/08/24 03:15:52;;;;;;;17.45;10.95;;;;;;;;;;5098312;28;20015;-69
2023/08/24 03:18:17;;;;;;;15.75;9.82;;;;;;;;;;5115849;28;20513;-69
2023/08/24 03:20:43;;;;;;;12.75;9.55;;;;;;;;;;5115213;28;20099;-69
2023/08/24 03:23:08;;;;;;;16.20;10.13;;;;;;;;;;5115494;28;20477;-69
2023/08/24 03:25:37;;;;;;;23.85;10.32;;;;;;;;;;5115417;28;20038;-69
2023/08/24 03:28:04;;;;;;;21.77;10.05;;;;;;;;;;5112693;28;20373;-69
2023/08/24 03:30:29;;;;;;;20.15;10.18;;;;;;;;;;5095438;28;20106;-69
2023/08/24 03:32:54;;;;;;;18.30;10.07;;;;;;;;;;5104161;28;20085;-69
2023/08/24 03:35:19;;;;;;;15.97;9.23;;;;;;;;;;5115288;28;20103;-69
2023/08/24 03:37:45;;;;;;;19.73;9.80;;;;;;;;;;5115127;28;20015;-69
2023/08/24 03:40:10;;;;;;;14.63;9.57;;;;;;;;;;5114797;28;20321;-70
2023/08/24 03:42:35;;;;;;;13.10;9.75;;;;;;;;;;5115082;28;20047;-69
2023/08/24 03:45:00;;;;;;;17.55;9.00;;;;;;;;;;5114754;28;20055;-69
2023/08/24 03:47:26;;;;;;;19.80;9.57;;;;;;;;;;5102286;28;20084;-69
2023/08/24 03:49:51;;;;;;;17.77;10.83;;;;;;;;;;5095019;28;20022;-69
2023/08/24 03:52:16;;;;;;;23.83;10.00;;;;;;;;;;5095121;28;20038;-69
2023/08/24 03:54:42;;;;;;;19.52;9.55;;;;;;;;;;5095133;28;20348;-69
2023/08/24 03:57:07;;;;;;;16.02;10.10;;;;;;;;;;5109887;28;20042;-66
2023/08/24 03:59:32;;;;;;;13.13;9.53;;;;;;;;;;5113069;28;20059;-66
2023/08/24 04:02:01;;;;;;;23.33;10.30;;;;;;;;;;5114706;28;20326;-66
2023/08/24 04:04:27;;;;;;;14.85;10.20;;;;;;;;;;5114494;28;20474;-66
2023/08/24 04:06:52;;;;;;;18.05;10.98;;;;;;;;;;5102595;28;20032;-66
2023/08/24 04:09:17;;;;;;;16.17;10.18;;;;;;;;;;5094741;28;20074;-65
2023/08/24 04:11:42;;;;;;;20.77;10.43;;;;;;;;;;5112068;28;20016;-66
2023/08/24 04:14:08;;;;;;;12.73;8.97;;;;;;;;;;5114534;28;20024;-66
2023/08/24 04:16:33;;;;;;;17.57;9.90;;;;;;;;;;5105388;28;20012;-66
2023/08/24 04:18:58;;;;;;;14.03;9.90;;;;;;;;;;5094793;28;20019;-66
2023/08/24 04:21:23;;;;;;;17.27;10.00;;;;;;;;;;5094555;28;20048;-66
2023/08/24 04:23:48;;;;;;;14.90;10.70;;;;;;;;;;5095380;28;20114;-66
2023/08/24 04:26:14;;;;;;;16.13;9.30;;;;;;;;;;5112371;28;20100;-66
2023/08/24 04:28:39;;;;;;;17.52;9.63;;;;;;;;;;5113349;28;20020;-66
2023/08/24 04:31:04;;;;;;;13.77;9.83;;;;;;;;;;5114102;28;20132;-66
2023/08/24 04:33:29;;;;;;;18.50;9.63;;;;;;;;;;5114134;28;20283;-66
2023/08/24 04:35:55;;;;;;;18.20;9.87;;;;;;;;;;5110535;28;20476;-66
2023/08/24 04:38:20;;;;;;;19.63;10.63;;;;;;;;;;5108373;28;20243;-66
2023/08/24 04:40:50;;;;;;;16.90;11.00;;;;;;;;;;5113672;28;20111;-66
2023/08/24 04:43:15;;;;;;;19.23;10.77;;;;;;;;;;5112447;28;20256;-66
2023/08/24 04:45:40;;;;;;;22.95;10.40;;;;;;;;;;5112385;28;20042;-66
2023/08/24 04:48:06;;;;;;;18.63;10.00;;;;;;;;;;5106850;28;20029;-65
2023/08/24 04:50:31;;;;;;;19.27;11.63;;;;;;;;;;5102557;28;20319;-66
2023/08/24 04:52:56;;;;;;;17.13;11.27;;;;;;;;;;5114402;28;20016;-66
2023/08/24 04:55:21;;;;;;;22.80;10.53;;;;;;;;;;5114628;28;20011;-66
2023/08/24 04:57:47;;;;;;;19.83;10.10;;;;;;;;;;5114287;28;20026;-66
2023/08/24 05:00:15;;;;;;;22.50;9.88;;;;;;;;;;5114225;28;20047;-66
2023/08/24 05:02:41;;;;;;;17.00;9.20;;;;;;;;;;5114252;28;20022;-66
2023/08/24 05:05:07;;;;;;;16.98;8.57;;;;;;;;;;5114153;28;20368;-66
2023/08/24 05:07:32;;;;;;;17.70;8.65;;;;;;;;;;5114387;28;20104;-69
2023/08/24 05:09:57;;;;;;;18.20;9.48;;;;;;;;;;5114334;28;20020;-70
2023/08/24 05:12:22;;;;;;;17.17;7.90;;;;;;;;;;5114120;28;20164;-69
2023/08/24 05:14:47;;;;;;;14.17;7.87;;;;;;;;;;5114051;28;20016;-69
2023/08/24 05:17:13;;;;;;;14.70;8.40;;;;;;;;;;5114219;28;20732;-69
2023/08/24 05:19:38;;;;;;;16.03;8.77;;;;;;;;;;5095531;28;20022;-69
2023/08/24 05:22:03;;;;;;;15.10;8.53;;;;;;;;;;5093460;28;20016;-69
2023/08/24 05:24:28;;;;;;;19.23;8.70;;;;;;;;;;5093326;28;20043;-69
2023/08/24 05:26:53;;;;;;;16.63;8.80;;;;;;;;;;5093448;28;20540;-69
2023/08/24 05:29:19;;;;;;;16.27;9.03;;;;;;;;;;5107699;28;20027;-69
2023/08/24 05:31:44;;;;;;;15.57;9.00;;;;;;;;;;5112774;28;20023;-69
2023/08/24 05:34:09;;;;;;;20.00;8.37;;;;;;;;;;5107880;28;20027;-69
2023/08/24 05:36:34;;;;;;;17.40;7.93;;;;;;;;;;5093277;28;20377;-69
2023/08/24 05:38:59;;;;;;;15.63;8.43;;;;;;;;;;5112351;28;20248;-69
2023/08/24 05:41:25;;;;;;;12.53;8.17;;;;;;;;;;5105871;28;20338;-69
2023/08/24 05:43:52;;;;;;;15.90;8.63;;;;;;;;;;5095150;28;20019;-70
2023/08/24 05:46:17;;;;;;;18.77;8.32;;;;;;;;;;5094061;28;20063;-69
2023/08/24 05:48:42;;;;;;;10.87;7.33;;;;;;;;;;5104236;28;20039;-69
2023/08/24 05:51:09;;;;;;;15.37;8.10;;;;;;;;;;5093097;28;20020;-69
2023/08/24 05:53:35;;;;;;;12.25;7.97;;;;;;;;;;5093174;28;20065;-69
2023/08/24 05:56:00;;;;;;;15.43;8.23;;;;;;;;;;5093442;28;20028;-74
2023/08/24 05:58:25;;;;;;;15.02;8.13;;;;;;;;;;5075002;28;20385;-67
2023/08/24 06:00:55;;;;;;;17.63;7.77;;;;;;;;;;5093196;28;20028;-67
2023/08/24 06:03:20;;;;;;;16.38;7.63;;;;;;;;;;5093082;28;20347;-67
2023/08/24 06:05:45;;;;;;;17.03;8.10;;;;;;;;;;5102460;28;20098;-67
2023/08/24 06:08:11;;;;;;;14.63;7.63;;;;;;;;;;5113434;28;20023;-67
2023/08/24 06:10:36;;;;;;;12.20;7.23;;;;;;;;;;5113291;28;20276;-68
2023/08/24 06:13:01;;;;;;;11.87;7.27;;;;;;;;;;5113403;28;20024;-67
2023/08/24 06:15:27;;;;;;;13.68;6.47;;;;;;;;;;5113587;28;20020;-67
2023/08/24 06:17:53;;;;;;;12.93;7.05;;;;;;;;;;5113616;28;20024;-64
2023/08/24 06:20:19;;;;;;;11.55;6.80;;;;;;;;;;5113293;28;20488;-64
2023/08/24 06:22:44;;;;;;;10.38;6.35;;;;;;;;;;5103034;28;20039;-64
2023/08/24 06:25:10;;;;;;;10.50;6.82;;;;;;;;;;5093939;28;20015;-64
2023/08/24 06:27:35;;;;;;;11.13;5.97;;;;;;;;;;5094081;28;20166;-64
2023/08/24 06:30:01;;;;;;;12.10;6.30;;;;;;;;;;5092672;28;20020;-64
2023/08/24 06:32:26;;;;;;;14.93;6.40;;;;;;;;;;5109567;28;20022;-64
2023/08/24 06:34:51;;;;;;;16.10;5.73;;;;;;;;;;5111035;28;20022;-64
2023/08/24 06:37:16;;;;;;;8.90;5.43;;;;;;;;;;5096062;28;20020;-64
2023/08/24 06:39:42;;;;;;;12.83;6.37;;;;;;;;;;5113308;28;20255;-64
2023/08/24 06:42:07;;;;;;;10.30;5.80;;;;;;;;;;5103872;28;20028;-65
2023/08/24 06:44:32;;;;;;;15.43;6.07;;;;;;;;;;5100083;28;20073;-64
2023/08/24 06:46:57;;;;;;;14.40;6.00;;;;;;;;;;5105811;28;20015;-64
2023/08/24 06:49:22;;;;;;;9.63;5.27;;;;;;;;;;5093114;28;20488;-64
2023/08/24 06:51:47;;;;;;;10.40;5.47;;;;;;;;;;5095166;28;20020;-65
2023/08/24 06:54:14;;;;;;;13.27;5.60;;;;;;;;;;5114357;28;20050;-64
2023/08/24 06:56:39;;;;;;;8.82;5.05;;;;;;;;;;5115856;28;20008;-64
2023/08/24 06:59:05;;;;;;;12.17;5.40;;;;;;;;;;5114684;28;20039;-65
2023/08/24 07:01:31;;;;;;;9.73;5.18;;;;;;;;;;5106427;28;20303;-65
2023/08/24 07:03:56;;;;;;;9.32;5.70;;;;;;;;;;5077978;28;20028;-65
2023/08/24 07:06:22;;;;;;;10.40;5.43;;;;;;;;;;5095824;28;20034;-65
2023/08/24 07:08:47;;;;;;;13.67;5.37;;;;;;;;;;5115727;28;20016;-65
2023/08/24 07:11:14;;;;;;;10.10;5.17;;;;;;;;;;5109320;28;20024;-65
2023/08/24 07:13:39;;;;;;;10.05;5.20;;;;;;;;;;5105181;28;20497;-65
2023/08/24 07:16:05;;;;;;;9.88;5.18;;;;;;;;;;5095621;28;20073;-64
2023/08/24 07:18:30;;;;;;;11.57;4.70;;;;;;;;;;5095700;28;20438;-65
2023/08/24 07:20:55;;;;;;;24.90;5.43;;;;;;;;;;5096784;28;20449;-65
2023/08/24 07:23:20;;;;;;;12.73;4.97;;;;;;;;;;5106483;28;20540;-65
2023/08/24 07:25:45;;;;;;;16.23;5.07;;;;;;;;;;5116013;28;20019;-64
2023/08/24 07:28:11;;;;;;;9.30;4.90;;;;;;;;;;5098117;28;20024;-65
2023/08/24 07:30:36;;;;;;;9.77;5.13;;;;;;;;;;5095215;28;20122;-65
2023/08/24 07:33:02;;;;;;;12.63;4.87;;;;;;;;;;5095609;28;20048;-64
2023/08/24 07:35:28;;;;;;;14.98;5.38;;;;;;;;;;5094570;28;20057;-65
2023/08/24 07:37:53;;;;;;;9.00;4.60;;;;;;;;;;5098957;28;20036;-65
2023/08/24 07:40:19;;;;;;;12.32;4.93;;;;;;;;;;5101064;28;20023;-65
2023/08/24 07:42:50;;;;;;;11.43;4.78;;;;;;;;;;5100146;28;20031;-65
2023/08/24 07:45:15;;;;;;;7.63;4.55;;;;;;;;;;5094973;28;20095;-64
2023/08/24 07:47:41;;;;;;;11.68;5.00;;;;;;;;;;5096974;28;20489;-65
2023/08/24 07:50:07;;;;;;;9.50;4.38;;;;;;;;;;5102891;28;20026;-65
2023/08/24 07:52:32;;;;;;;10.68;4.25;;;;;;;;;;5101459;28;20485;-65
2023/08/24 07:55:00;;;;;;;13.27;4.53;;;;;;;;;;5115445;28;20019;-65
2023/08/24 07:57:26;;;;;;;8.88;4.40;;;;;;;;;;5103765;28;20028;-65
2023/08/24 07:59:51;;;;;;;11.85;4.68;;;;;;;;;;5094966;28;20028;-65
2023/08/24 08:02:16;;;;;;;9.15;4.60;;;;;;;;;;5094372;28;20027;-65
2023/08/24 08:04:41;;;;;;;9.27;4.53;;;;;;;;;;5095003;28;20069;-65
2023/08/24 08:07:07;;;;;;;8.43;4.50;;;;;;;;;;5093820;28;20275;-65
2023/08/24 08:09:32;;;;;;;12.70;4.38;;;;;;;;;;5094616;28;20027;-65
2023/08/24 08:11:57;;;;;;;8.97;4.10;;;;;;;;;;5094532;28;21611;-65
2023/08/24 08:14:23;;;;;;;10.00;4.20;;;;;;;;;;5094465;28;20264;-65
2023/08/24 08:16:48;;;;;;;9.35;4.18;;;;;;;;;;5094399;28;20027;-65
2023/08/24 08:19:14;;;;;;;10.17;4.20;;;;;;;;;;5094396;28;20518;-65
2023/08/24 08:21:39;;;;;;;12.43;4.63;;;;;;;;;;5093428;28;20730;-65
2023/08/24 08:24:04;;;;;;;8.03;4.33;;;;;;;;;;5101522;28;20369;-65
2023/08/24 08:26:29;;;;;;;7.90;4.00;;;;;;;;;;5113246;28;20257;-65
2023/08/24 08:28:55;;;;;;;22.88;4.47;;;;;;;;;;5114299;28;20039;-65
2023/08/24 08:31:20;;;;;;;8.50;4.70;;;;;;;;;;5108647;28;20028;-65
2023/08/24 08:33:45;;;;;;;7.87;4.30;;;;;;;;;;5094133;28;20374;-65
2023/08/24 08:36:10;;;;;;;13.70;4.50;;;;;;;;;;5093489;28;20507;-65
2023/08/24 08:38:36;;;;;;;6.80;3.90;;;;;;;;;;5107173;28;20012;-68
2023/08/24 08:41:04;;;;;;;7.77;3.87;;;;;;;;;;5111204;28;20076;-68
2023/08/24 08:43:32;;;;;;;12.23;4.13;;;;;;;;;;5106700;28;20267;-68
2023/08/24 08:45:58;;;;;;;10.65;3.70;;;;;;;;;;5096602;28;20040;-68
2023/08/24 08:48:24;;;;;;;8.57;3.50;;;;;;;;;;5096114;28;20373;-68
2023/08/24 08:50:49;;;;;;;8.93;3.50;;;;;;;;;;5109937;28;20469;-68
2023/08/24 08:53:15;;;;;;;7.95;3.33;;;;;;;;;;5099353;28;20103;-68
2023/08/24 08:55:40;;;;;;;7.30;3.67;;;;;;;;;;5094005;28;20104;-69
2023/08/24 08:58:06;;;;;;;10.63;3.53;;;;;;;;;;5093485;28;20028;-68
2023/08/24 09:00:32;;;;;;;9.32;3.47;;;;;;;;;;5093769;28;20028;-68
2023/08/24 09:02:57;;;;;;;8.80;3.25;;;;;;;;;;5093956;28;20028;-69
2023/08/24 09:05:25;;;;;;;8.98;3.63;;;;;;;;;;5093040;28;20024;-68
2023/08/24 09:07:51;;;;;;;8.57;3.67;;;;;;;;;;5105593;28;20031;-68
2023/08/24 09:10:16;;;;;;;6.63;3.50;;;;;;;;;;5113154;28;20034;-68
2023/08/24 09:12:41;;;;;;;7.33;3.17;;;;;;;;;;5101671;28;20054;-69
2023/08/24 09:15:07;;;;;;;6.65;3.42;;;;;;;;;;5093246;28;20085;-68
2023/08/24 09:17:33;;;;;;;4.95;3.00;;;;;;;;;;5107375;28;20027;-68
2023/08/24 09:19:59;;;;;;;7.13;3.47;;;;;;;;;;5094663;28;20030;-68
2023/08/24 09:22:24;;;;;;;8.75;3.60;;;;;;;;;;5113566;28;20027;-68
2023/08/24 09:24:54;;;;;;;7.87;3.13;;;;;;;;;;5113909;28;20385;-69
2023/08/24 09:27:20;;;;;;;5.53;3.13;;;;;;;;;;5108699;28;20052;-68
2023/08/24 09:29:49;;;;;;;8.82;3.30;;;;;;;;;;5113335;28;20051;-69
2023/08/24 09:32:15;;;;;;;7.20;3.60;;;;;;;;;;5113650;28;20015;-69
2023/08/24 09:34:40;;;;;;;8.30;3.35;;;;;;;;;;5113388;28;20026;-68
2023/08/24 09:37:13;;;;;;;10.10;3.40;;;;;;;;;;5113562;28;20117;-69
2023/08/24 09:39:38;;;;;;;10.25;3.10;;;;;;;;;;5113795;28;20418;-69
2023/08/24 09:42:03;;;;;;;5.73;3.20;;;;;;;;;;5113553;28;20103;-68
2023/08/24 09:44:29;;;;;;;8.43;3.58;;;;;;;;;;5113556;28;20094;-68
2023/08/24 09:46:54;;;;;;;10.55;3.63;;;;;;;;;;5113845;28;20370;-68
2023/08/24 09:49:19;;;;;;;9.23;3.30;;;;;;;;;;5113048;28;20038;-68
2023/08/24 09:51:44;;;;;;;10.70;3.30;;;;;;;;;;5103120;28;20114;-68
2023/08/24 09:54:10;;;;;;;8.60;3.63;;;;;;;;;;5093357;28;20373;-68
2023/08/24 09:56:37;;;;;;;7.13;3.50;;;;;;;;;;5093264;28;20020;-69
2023/08/24 09:59:13;;;;;;;9.13;3.58;;;;;;;;;;5112599;28;20008;-69
2023/08/24 10:01:40;;;;;;;7.10;3.47;;;;;;;;;;5113337;28;20015;-69
2023/08/24 10:04:07;;;;;;;7.40;3.85;;;;;;;;;;5113075;28;20103;-68
2023/08/24 10:06:32;;;;;;;10.48;3.95;;;;;;;;;;5113354;28;20019;-69
2023/08/24 10:09:00;;;;;;;8.77;3.50;;;;;;;;;;5111322;28;20073;-68
2023/08/24 10:11:28;;;;;;;8.07;3.80;;;;;;;;;;5113469;28;20298;-69
2023/08/24 10:13:57;;;;;;;7.45;3.60;;;;;;;;;;5113290;28;20354;-69
2023/08/24 10:16:23;;;;;;;5.15;3.33;;;;;;;;;;5113258;28;20427;-68
2023/08/24 10:18:51;;;;;;;6.72;3.53;;;;;;;;;;5093632;28;20024;-68
2023/08/24 10:21:16;;;;;;;6.22;3.67;;;;;;;;;;5092193;28;20512;-68
2023/08/24 10:23:42;;;;;;;8.52;3.60;;;;;;;;;;5092528;28;20020;-68
2023/08/24 10:26:09;;;;;;;7.38;4.13;;;;;;;;;;5097556;28;20475;-68
2023/08/24 10:28:35;;;;;;;8.30;4.07;;;;;;;;;;5110005;27;20023;-68
2023/08/24 10:31:01;;;;;;;7.70;3.47;;;;;;;;;;5110184;27;20491;-68
2023/08/24 10:33:27;;;;;;;8.32;3.72;;;;;;;;;;5096430;28;20020;-68
2023/08/24 10:35:52;;;;;;;7.43;3.53;;;;;;;;;;5096292;28;20019;-68
2023/08/24 10:38:41;;;;;;;6.63;3.75;;;;;;;;;;5096301;28;20485;-68
2023/08/24 10:41:06;;;;;;;12.57;3.97;;;;;;;;;;5095973;28;20525;-69
2023/08/24 10:43:38;;;;;;;8.70;4.00;;;;;;;;;;5096471;28;20024;-68
2023/08/24 10:46:04;;;;;;;6.72;3.55;;;;;;;;;;5096293;28;20524;-69
2023/08/24 10:48:41;;;;;;;8.15;3.40;;;;;;;;;;5096387;28;20016;-68
2023/08/24 10:51:21;;;;;;;7.47;3.88;;;;;;;;;;5096198;28;20122;-68
2023/08/24 10:53:46;;;;;;;8.65;3.80;;;;;;;;;;5096525;28;20389;-69
2023/08/24 10:56:12;;;;;;;13.30;4.43;;;;;;;;;;5095700;28;20016;-69
2023/08/24 10:58:37;;;;;;;8.95;4.13;;;;;;;;;;5096364;28;20024;-68
2023/08/24 11:01:02;;;;;;;5.90;3.87;;;;;;;;;;5096179;28;20101;-69
2023/08/24 11:03:34;;;;;;;9.33;4.23;;;;;;;;;;5096093;28;20718;-69
2023/08/24 11:05:59;;;;;;;9.73;4.25;;;;;;;;;;5095882;28;20016;-69
2023/08/24 11:08:43;;;;;;;7.00;3.70;;;;;;;;;;5095917;28;20042;-69
2023/08/24 11:11:18;;;;;;;9.38;4.32;;;;;;;;;;5094998;28;20031;-69
2023/08/24 11:14:03;;;;;;;7.43;3.88;;;;;;;;;;5095857;28;20091;-68
2023/08/24 11:16:45;;;;;;;7.03;3.63;;;;;;;;;;5095700;28;20071;-69
2023/08/24 11:19:11;;;;;;;11.43;4.25;;;;;;;;;;5096071;28;20373;-68
2023/08/24 11:21:38;;;;;;;9.27;3.80;;;;;;;;;;5095620;28;20111;-69
2023/08/24 11:24:04;;;;;;;10.10;4.15;;;;;;;;;;5095741;28;20094;-68
2023/08/24 11:26:30;;;;;;;10.95;4.20;;;;;;;;;;5095036;28;20020;-68
2023/08/24 11:28:57;;;;;;;7.90;3.70;;;;;;;;;;5095542;28;20024;-69
2023/08/24 11:31:22;;;;;;;8.00;4.03;;;;;;;;;;5095751;28;20016;-68
2023/08/24 11:33:48;;;;;;;7.97;4.05;;;;;;;;;;5095483;28;20058;-68
2023/08/24 11:36:13;;;;;;;6.77;4.10;;;;;;;;;;5094806;28;20066;-68
2023/08/24 11:38:39;;;;;;;6.60;4.10;;;;;;;;;;5096680;28;20340;-69
2023/08/24 11:41:14;;;;;;;8.02;4.22;;;;;;;;;;5104724;28;20020;-68
2023/08/24 11:43:39;;;;;;;8.82;3.97;;;;;;;;;;5095302;28;20550;-68
2023/08/24 11:46:04;;;;;;;7.73;4.00;;;;;;;;;;5095156;28;20048;-69
2023/08/24 11:48:30;;;;;;;9.30;4.18;;;;;;;;;;5095156;28;20757;-68
2023/08/24 11:50:57;;;;;;;8.40;4.18;;;;;;;;;;5095325;28;20031;-69
2023/08/24 11:53:24;;;;;;;11.77;4.55;;;;;;;;;;5095114;28;20068;-69
2023/08/24 11:55:49;;;;;;;9.85;4.18;;;;;;;;;;5104502;28;20064;-69
2023/08/24 11:58:15;;;;;;;7.67;4.13;;;;;;;;;;5115449;28;20086;-69
2023/08/24 12:00:41;;;;;;;9.35;4.15;;;;;;;;;;5115617;28;20469;-69
2023/08/24 12:03:06;;;;;;;7.22;3.97;;;;;;;;;;5115342;28;20036;-68
2023/08/24 12:05:32;;;;;;;6.68;4.10;;;;;;;;;;5115140;28;20024;-68
2023/08/24 12:07:57;;;;;;;11.23;4.50;;;;;;;;;;5115413;28;20024;-69
2023/08/24 12:10:22;;;;;;;14.80;4.83;;;;;;;;;;5110066;28;20288;-68
2023/08/24 12:12:47;;;;;;;12.00;4.53;;;;;;;;;;5094862;28;20091;-68
2023/08/24 12:15:22;;;;;;;11.38;4.85;;;;;;;;;;5094939;28;20253;-68
2023/08/24 12:17:47;;;;;;;8.60;4.50;;;;;;;;;;5094879;28;20473;-68
2023/08/24 12:20:22;;;;;;;8.38;4.43;;;;;;;;;;5094852;28;20027;-69
2023/08/24 12:22:51;;;;;;;9.32;4.55;;;;;;;;;;5094821;28;20020;-69
2023/08/24 12:25:17;;;;;;;8.25;5.28;;;;;;;;;;5094164;28;20032;-69
2023/08/24 12:27:42;;;;;;;8.27;4.82;;;;;;;;;;5094482;28;20416;-69
2023/08/24 12:30:07;;;;;;;7.00;4.63;;;;;;;;;;5094302;28;20020;-68
2023/08/24 12:32:46;;;;;;;10.25;4.82;;;;;;;;;;5094530;28;20018;-69
2023/08/24 12:35:12;;;;;;;14.68;4.90;;;;;;;;;;5094574;28;20028;-69
2023/08/24 12:37:37;;;;;;;8.95;4.80;;;;;;;;;;5094196;28;20517;-69
2023/08/24 12:40:06;;;;;;;12.82;5.15;;;;;;;;;;5093508;28;20020;-68
2023/08/24 12:42:31;;;;;;;6.38;4.50;;;;;;;;;;5094145;28;20048;-69
2023/08/24 12:44:56;;;;;;;13.52;5.15;;;;;;;;;;5093795;28;20082;-69
2023/08/24 12:47:22;;;;;;;11.20;5.30;;;;;;;;;;5093599;28;20028;-69
2023/08/24 12:49:47;;;;;;;9.80;4.83;;;;;;;;;;5093739;28;20024;-69
2023/08/24 12:52:12;;;;;;;9.57;4.47;;;;;;;;;;5094002;28;20358;-69
2023/08/24 12:54:38;;;;;;;10.38;5.07;;;;;;;;;;5093602;28;20068;-68
2023/08/24 12:57:04;;;;;;;16.97;5.60;;;;;;;;;;5093886;28;20020;-69
2023/08/24 12:59:29;;;;;;;11.30;6.33;;;;;;;;;;5093648;28;20550;-68
2023/08/24 13:01:54;;;;;;;7.77;5.43;;;;;;;;;;5093855;28;20244;-68
2023/08/24 13:04:19;;;;;;;10.65;5.40;;;;;;;;;;5075672;28;20469;-69
2023/08/24 13:06:45;;;;;;;8.95;5.45;;;;;;;;;;5093977;28;20047;-68
2023/08/24 13:09:11;;;;;;;7.33;5.73;;;;;;;;;;5093143;28;20461;-75
2023/08/24 13:11:37;;;;;;;10.88;6.53;;;;;;;;;;5104970;28;20453;-75
2023/08/24 13:14:02;;;;;;;8.37;5.47;;;;;;;;;;5107458;28;20112;-76
2023/08/24 13:16:27;;;;;;;13.40;5.60;;;;;;;;;;5106114;28;20264;-76
2023/08/24 13:18:53;;;;;;;11.10;6.00;;;;;;;;;;5109451;28;20462;-76
2023/08/24 13:21:18;;;;;;;12.47;6.40;;;;;;;;;;5093492;28;20031;-75
2023/08/24 13:23:43;;;;;;;11.07;6.45;;;;;;;;;;5074724;28;20603;-75
2023/08/24 13:26:16;;;;;;;8.50;5.60;;;;;;;;;;5093445;28;20437;-70
2023/08/24 13:28:41;;;;;;;12.80;5.72;;;;;;;;;;5093920;28;20413;-70
2023/08/24 13:31:08;;;;;;;15.30;6.33;;;;;;;;;;5093336;28;20022;-70
2023/08/24 13:33:33;;;;;;;31.77;8.25;;;;;;;;;;5093330;28;20020;-70
2023/08/24 13:35:58;;;;;;;25.50;7.97;;;;;;;;;;5093424;28;20095;-70
2023/08/24 13:38:23;;;;;;;25.57;9.57;;;;;;;;;;5092635;28;20253;-69
2023/08/24 13:40:49;;;;;;;22.73;8.37;;;;;;;;;;5093063;28;20031;-70
2023/08/24 13:43:15;;;;;;;22.20;8.82;;;;;;;;;;5093251;28;20023;-70
2023/08/24 13:45:40;;;;;;;18.75;9.13;;;;;;;;;;5093120;28;20059;-70
2023/08/24 13:48:06;;;;;;;24.10;10.53;;;;;;;;;;5093248;28;20390;-69
2023/08/24 13:50:31;;;;;;;19.45;8.73;;;;;;;;;;5093365;28;20024;-70
2023/08/24 13:52:56;;;;;;;19.80;8.93;;;;;;;;;;5096871;28;20477;-69
2023/08/24 13:55:21;;;;;;;21.73;10.00;;;;;;;;;;5103760;28;20024;-69
2023/08/24 13:57:47;;;;;;;22.67;9.90;;;;;;;;;;5093085;28;20020;-70
2023/08/24 14:00:12;;;;;;;25.23;10.27;;;;;;;;;;5095701;28;20019;-70
2023/08/24 14:02:37;;;;;;;16.52;10.20;;;;;;;;;;5097532;28;20099;-70
2023/08/24 14:05:03;;;;;;;17.50;10.30;;;;;;;;;;5097252;28;20020;-70
2023/08/24 14:07:28;;;;;;;19.42;10.32;;;;;;;;;;5097136;28;20685;-69
2023/08/24 14:09:53;;;;;;;14.47;9.00;;;;;;;;;;5096660;28;20095;-70
2023/08/24 14:12:18;;;;;;;19.20;9.00;;;;;;;;;;5096714;28;20265;-70
2023/08/24 14:14:44;;;;;;;16.53;8.23;;;;;;;;;;5096965;28;20747;-70
2023/08/24 14:17:09;;;;;;;18.20;10.83;;;;;;;;;;5097309;28;20016;-70
2023/08/24 14:19:34;;;;;;;24.30;10.77;;;;;;;;;;5097232;28;20237;-69
2023/08/24 14:21:59;;;;;;;15.67;10.20;;;;;;;;;;5097193;28;20104;-69
2023/08/24 14:24:25;;;;;;;15.90;9.33;;;;;;;;;;5096727;28;20048;-70